createdAt,value
2017-03-22T00:00:28.907Z,65.20
2017-03-22T00:01:28.913Z,65.50
2017-03-22T00:02:28.982Z,67.00
2017-03-22T00:03:28.979Z,67.00
2017-03-22T00:04:28.934Z,67.00
2017-03-22T00:05:33.944Z,67.10
2017-03-22T00:06:34.703Z,66.90
2017-03-22T00:07:34.793Z,67.30
2017-03-22T00:08:34.819Z,67.60
2017-03-22T00:09:34.799Z,66.90
2017-03-22T00:10:34.792Z,68.00
2017-03-22T00:11:34.838Z,68.20
2017-03-22T00:12:34.896Z,68.50
2017-03-22T00:13:34.899Z,68.90
2017-03-22T00:14:34.904Z,69.00
2017-03-22T00:15:34.949Z,69.20
2017-03-22T00:16:35.003Z,69.00
2017-03-22T00:17:35.075Z,69.40
2017-03-22T00:18:35.095Z,68.40
2017-03-22T00:19:35.068Z,69.70
2017-03-22T00:20:35.054Z,70.70
2017-03-22T00:21:36.386Z,69.60
2017-03-22T00:22:36.427Z,69.40
2017-03-22T00:23:36.504Z,69.20
2017-03-22T00:24:42.334Z,68.70
2017-03-22T00:25:45.599Z,70.10
2017-03-22T00:26:45.573Z,69.00
2017-03-22T00:27:45.566Z,69.00
2017-03-22T00:28:46.325Z,68.10
2017-03-22T00:29:47.017Z,68.20
2017-03-22T00:30:47.105Z,68.50
2017-03-22T00:31:47.135Z,68.30
2017-03-22T00:32:48.111Z,68.70
2017-03-22T00:33:48.110Z,69.00
2017-03-22T00:34:48.180Z,69.30
2017-03-22T00:35:48.923Z,69.60
2017-03-22T00:36:48.894Z,69.50
2017-03-22T00:37:49.605Z,69.90
2017-03-22T00:38:49.585Z,70.80
2017-03-22T00:39:49.644Z,71.50
2017-03-22T00:40:49.666Z,70.50
2017-03-22T00:41:49.712Z,69.90
2017-03-22T00:42:49.691Z,68.80
2017-03-22T00:43:49.786Z,69.60
2017-03-22T00:44:49.784Z,69.80
2017-03-22T00:45:49.802Z,69.40
2017-03-22T00:46:49.874Z,67.80
2017-03-22T00:47:49.882Z,66.70
2017-03-22T00:48:49.915Z,67.00
2017-03-22T00:49:49.871Z,67.50
2017-03-22T00:50:49.837Z,67.70
2017-03-22T00:51:49.830Z,67.90
2017-03-22T00:52:49.835Z,68.50
2017-03-22T00:53:49.801Z,68.60
2017-03-22T00:54:49.954Z,69.40
2017-03-22T00:55:50.812Z,70.00
2017-03-22T00:56:50.745Z,70.30
2017-03-22T00:57:50.778Z,70.30
2017-03-22T00:58:51.481Z,70.00
2017-03-22T00:59:51.448Z,70.00
2017-03-22T01:00:51.964Z,69.70
2017-03-22T01:01:51.931Z,68.90
2017-03-22T01:02:52.737Z,68.70
2017-03-22T01:03:52.691Z,68.60
2017-03-22T01:04:52.729Z,67.70
2017-03-22T01:05:52.761Z,67.60
2017-03-22T01:06:52.731Z,67.80
2017-03-22T01:07:52.785Z,67.90
2017-03-22T01:08:52.811Z,68.90
2017-03-22T01:09:52.850Z,69.40
2017-03-22T01:10:52.874Z,69.20
2017-03-22T01:11:52.931Z,70.00
2017-03-22T01:12:52.989Z,72.40
2017-03-22T01:13:52.954Z,71.00
2017-03-22T01:14:52.899Z,72.20
2017-03-22T01:15:52.886Z,71.80
2017-03-22T01:16:52.926Z,71.30
2017-03-22T01:17:52.890Z,71.80
2017-03-22T01:18:52.893Z,71.70
2017-03-22T01:19:52.926Z,71.80
2017-03-22T01:20:52.952Z,71.50
2017-03-22T01:21:52.943Z,70.90
2017-03-22T01:22:52.896Z,71.10
2017-03-22T01:23:53.638Z,71.00
2017-03-22T01:24:54.204Z,70.70
2017-03-22T01:25:58.811Z,71.30
2017-03-22T01:26:59.866Z,71.40
2017-03-22T01:27:59.844Z,69.70
2017-03-22T01:28:59.868Z,69.70
2017-03-22T01:29:59.905Z,70.80
2017-03-22T01:31:00.624Z,71.00
2017-03-22T01:32:00.579Z,72.00
2017-03-22T01:33:00.544Z,71.60
2017-03-22T01:34:00.551Z,71.50
2017-03-22T01:35:00.548Z,71.80
2017-03-22T01:36:01.299Z,72.10
2017-03-22T01:37:01.293Z,71.90
2017-03-22T01:38:01.268Z,70.50
2017-03-22T01:39:01.249Z,69.20
2017-03-22T01:40:01.218Z,71.30
2017-03-22T01:41:01.266Z,71.60
2017-03-22T01:42:01.226Z,71.50
2017-03-22T01:43:01.226Z,72.00
2017-03-22T01:44:05.422Z,72.90
2017-03-22T01:45:05.469Z,73.50
2017-03-22T01:46:05.421Z,74.70
2017-03-22T01:47:05.466Z,74.60
2017-03-22T01:48:05.503Z,74.50
2017-03-22T01:49:05.482Z,75.10
2017-03-22T01:50:05.659Z,75.80
2017-03-22T01:51:05.634Z,75.80
2017-03-22T01:52:05.695Z,76.40
2017-03-22T01:53:05.744Z,76.80
2017-03-22T01:54:05.763Z,77.10
2017-03-22T01:55:05.890Z,77.30
2017-03-22T01:56:06.622Z,77.70
2017-03-22T01:57:06.587Z,77.50
2017-03-22T01:58:06.871Z,77.60
2017-03-22T01:59:06.861Z,77.80
2017-03-22T02:00:06.884Z,77.80
2017-03-22T02:01:06.884Z,77.80
2017-03-22T02:02:07.514Z,78.10
2017-03-22T02:03:07.526Z,78.60
2017-03-22T02:04:07.566Z,79.20
2017-03-22T02:05:07.637Z,79.50
2017-03-22T02:06:07.620Z,77.40
2017-03-22T02:07:08.474Z,76.80
2017-03-22T02:08:08.495Z,76.60
2017-03-22T02:09:08.506Z,76.60
2017-03-22T02:10:08.520Z,76.90
2017-03-22T02:11:08.502Z,77.90
2017-03-22T02:12:08.743Z,78.90
2017-03-22T02:13:08.734Z,78.20
2017-03-22T02:14:08.733Z,77.20
2017-03-22T02:15:08.765Z,75.10
2017-03-22T02:16:08.765Z,75.30
2017-03-22T02:17:08.768Z,75.00
2017-03-22T02:18:08.780Z,74.30
2017-03-22T02:19:08.787Z,74.70
2017-03-22T02:20:08.847Z,74.30
2017-03-22T02:21:08.833Z,75.10
2017-03-22T02:22:08.787Z,74.60
2017-03-22T02:23:08.794Z,73.60
2017-03-22T02:24:08.802Z,74.80
2017-03-22T02:25:12.179Z,74.80
2017-03-22T02:26:17.930Z,74.50
2017-03-22T02:27:18.088Z,73.90
2017-03-22T02:28:18.063Z,73.80
2017-03-22T02:29:18.043Z,73.00
2017-03-22T02:30:24.853Z,72.80
2017-03-22T02:31:24.930Z,72.40
2017-03-22T02:32:24.917Z,72.10
2017-03-22T02:33:24.906Z,71.80
2017-03-22T02:34:24.893Z,73.50
2017-03-22T02:35:24.914Z,73.60
2017-03-22T02:36:24.947Z,74.60
2017-03-22T02:37:25.006Z,74.50
2017-03-22T02:38:25.808Z,73.50
2017-03-22T02:39:25.800Z,74.50
2017-03-22T02:40:25.826Z,73.00
2017-03-22T02:41:25.881Z,72.80
2017-03-22T02:42:25.883Z,72.20
2017-03-22T02:43:26.587Z,71.90
2017-03-22T02:44:26.551Z,72.10
2017-03-22T02:45:26.549Z,72.00
2017-03-22T02:46:26.599Z,72.90
2017-03-22T02:47:26.558Z,73.40
2017-03-22T02:48:26.521Z,74.70
2017-03-22T02:49:27.248Z,74.80
2017-03-22T02:50:27.244Z,74.80
2017-03-22T02:51:27.233Z,74.60
2017-03-22T02:52:27.191Z,75.40
2017-03-22T02:53:27.168Z,77.10
2017-03-22T02:54:27.746Z,76.50
2017-03-22T02:55:27.727Z,76.70
2017-03-22T02:56:27.733Z,75.50
2017-03-22T02:57:27.687Z,74.30
2017-03-22T02:58:27.651Z,74.50
2017-03-22T02:59:27.619Z,74.90
2017-03-22T03:00:27.619Z,75.20
2017-03-22T03:01:27.649Z,75.50
2017-03-22T03:02:27.692Z,76.00
2017-03-22T03:03:27.760Z,77.00
2017-03-22T03:04:28.467Z,77.90
2017-03-22T03:05:28.458Z,76.90
2017-03-22T03:06:28.500Z,76.60
2017-03-22T03:07:28.490Z,77.20
2017-03-22T03:08:28.456Z,76.90
2017-03-22T03:09:28.420Z,77.30
2017-03-22T03:10:28.393Z,77.80
2017-03-22T03:11:28.482Z,78.40
2017-03-22T03:12:28.514Z,78.70
2017-03-22T03:13:28.490Z,78.70
2017-03-22T03:14:28.545Z,77.80
2017-03-22T03:15:28.606Z,77.10
2017-03-22T03:16:28.611Z,77.20
2017-03-22T03:17:28.584Z,77.00
2017-03-22T03:18:28.671Z,77.80
2017-03-22T03:19:28.661Z,78.20
2017-03-22T03:20:28.698Z,79.30
2017-03-22T03:21:28.682Z,78.70
2017-03-22T03:22:28.718Z,78.00
2017-03-22T03:23:28.663Z,76.40
2017-03-22T03:24:28.670Z,77.10
2017-03-22T03:25:28.682Z,75.70
2017-03-22T03:26:28.682Z,75.70
2017-03-22T03:27:28.689Z,75.90
2017-03-22T03:28:29.190Z,76.20
2017-03-22T03:29:29.158Z,75.90
2017-03-22T03:30:29.860Z,75.40
2017-03-22T03:31:29.870Z,75.00
2017-03-22T03:32:29.887Z,73.90
2017-03-22T03:33:29.862Z,75.30
2017-03-22T03:34:29.863Z,73.90
2017-03-22T03:35:29.898Z,73.30
2017-03-22T03:36:29.882Z,73.60
2017-03-22T03:37:29.943Z,73.90
2017-03-22T03:38:29.952Z,75.00
2017-03-22T03:39:29.898Z,76.60
2017-03-22T03:40:29.896Z,75.60
2017-03-22T03:41:30.057Z,74.00
2017-03-22T03:42:30.062Z,74.50
2017-03-22T03:43:30.776Z,73.40
2017-03-22T03:44:30.789Z,75.00
2017-03-22T03:45:30.760Z,75.00
2017-03-22T03:46:30.737Z,75.50
2017-03-22T03:47:30.702Z,73.00
2017-03-22T03:48:30.713Z,74.50
2017-03-22T03:49:30.691Z,73.90
2017-03-22T03:50:30.686Z,73.80
2017-03-22T03:51:30.717Z,72.70
2017-03-22T03:52:30.735Z,72.20
2017-03-22T03:53:30.699Z,71.80
2017-03-22T03:54:30.693Z,71.20
2017-03-22T03:55:30.693Z,71.40
2017-03-22T03:56:30.676Z,70.70
2017-03-22T03:57:31.399Z,70.40
2017-03-22T03:58:31.428Z,70.00
2017-03-22T03:59:32.093Z,69.90
2017-03-22T04:00:32.118Z,68.00
2017-03-22T04:01:32.150Z,68.10
2017-03-22T04:02:32.162Z,66.10
2017-03-22T04:03:32.270Z,67.40
2017-03-22T04:04:32.299Z,67.40
2017-03-22T04:05:32.309Z,67.80
2017-03-22T04:06:32.306Z,69.10
2017-03-22T04:07:32.266Z,70.00
2017-03-22T04:08:33.002Z,69.20
2017-03-22T04:09:33.743Z,67.90
2017-03-22T04:10:33.853Z,67.20
2017-03-22T04:11:33.904Z,67.20
2017-03-22T04:12:33.921Z,67.90
2017-03-22T04:13:33.887Z,68.70
2017-03-22T04:14:33.918Z,69.20
2017-03-22T04:15:33.902Z,69.70
2017-03-22T04:16:33.915Z,70.60
2017-03-22T04:17:34.000Z,71.10
2017-03-22T04:18:33.955Z,72.70
2017-03-22T04:19:34.086Z,71.80
2017-03-22T04:20:34.813Z,70.70
2017-03-22T04:21:34.888Z,70.80
2017-03-22T04:22:34.948Z,71.70
2017-03-22T04:23:34.918Z,72.70
2017-03-22T04:24:34.879Z,72.60
2017-03-22T04:25:44.449Z,69.80
2017-03-22T04:26:44.505Z,69.70
2017-03-22T04:27:45.275Z,70.40
2017-03-22T04:28:45.236Z,70.60
2017-03-22T04:29:45.214Z,70.70
2017-03-22T04:30:45.217Z,72.00
2017-03-22T04:31:45.246Z,71.90
2017-03-22T04:32:45.240Z,72.10
2017-03-22T04:33:45.218Z,72.90
2017-03-22T04:34:45.198Z,73.20
2017-03-22T04:35:45.286Z,73.90
2017-03-22T04:36:45.251Z,74.10
2017-03-22T04:37:45.201Z,74.30
2017-03-22T04:38:45.167Z,74.90
2017-03-22T04:39:45.201Z,76.10
2017-03-22T04:40:45.163Z,75.40
2017-03-22T04:41:45.149Z,74.60
2017-03-22T04:42:45.134Z,74.20
2017-03-22T04:43:45.120Z,74.70
2017-03-22T04:44:45.091Z,75.70
2017-03-22T04:45:45.078Z,74.70
2017-03-22T04:46:45.085Z,73.60
2017-03-22T04:47:45.103Z,72.10
2017-03-22T04:48:45.056Z,74.30
2017-03-22T04:49:45.756Z,73.70
2017-03-22T04:50:46.487Z,73.10
2017-03-22T04:51:47.315Z,72.90
2017-03-22T04:52:47.343Z,72.80
2017-03-22T04:53:47.383Z,73.10
2017-03-22T04:54:47.413Z,73.30
2017-03-22T04:55:47.420Z,74.10
2017-03-22T04:56:52.393Z,74.40
2017-03-22T04:57:52.354Z,75.00
2017-03-22T04:58:52.755Z,75.00
2017-03-22T04:59:52.694Z,76.40
2017-03-22T05:00:53.414Z,76.30
2017-03-22T05:01:53.439Z,76.00
2017-03-22T05:02:53.351Z,74.80
2017-03-22T05:03:53.296Z,73.90
2017-03-22T05:04:53.250Z,73.90
2017-03-22T05:05:54.161Z,73.40
2017-03-22T05:06:54.112Z,73.50
2017-03-22T05:07:54.125Z,74.30
2017-03-22T05:08:54.067Z,74.60
2017-03-22T05:09:54.003Z,75.70
2017-03-22T05:10:54.070Z,76.00
2017-03-22T05:11:54.049Z,75.80
2017-03-22T05:12:58.074Z,76.10
2017-03-22T05:13:58.015Z,76.20
2017-03-22T05:14:58.709Z,75.70
2017-03-22T05:15:58.673Z,75.40
2017-03-22T05:16:58.634Z,76.50
2017-03-22T05:17:58.625Z,76.20
2017-03-22T05:18:58.555Z,75.40
2017-03-22T05:19:58.551Z,74.60
2017-03-22T05:20:58.493Z,74.10
2017-03-22T05:21:58.438Z,74.10
2017-03-22T05:22:58.515Z,74.50
2017-03-22T05:23:58.574Z,74.90
2017-03-22T05:24:58.555Z,75.00
2017-03-22T05:25:58.566Z,75.30
2017-03-22T05:26:58.558Z,74.90
2017-03-22T05:27:58.632Z,74.80
2017-03-22T05:28:58.565Z,75.00
2017-03-22T05:29:58.508Z,75.00
2017-03-22T05:30:58.615Z,75.00
2017-03-22T05:31:59.198Z,74.50
2017-03-22T05:32:59.147Z,74.20
2017-03-22T05:33:59.184Z,74.50
2017-03-22T05:34:59.099Z,74.60
2017-03-22T05:35:59.150Z,74.60
2017-03-22T05:36:59.076Z,74.40
2017-03-22T05:37:59.084Z,74.90
2017-03-22T05:38:59.061Z,74.70
2017-03-22T05:39:59.009Z,74.30
2017-03-22T05:40:59.023Z,74.20
2017-03-22T05:41:58.939Z,74.60
2017-03-22T05:42:58.905Z,74.90
2017-03-22T05:43:58.829Z,74.80
2017-03-22T05:44:58.774Z,75.00
2017-03-22T05:45:58.762Z,74.80
2017-03-22T05:46:58.740Z,75.40
2017-03-22T05:47:58.747Z,75.30
2017-03-22T05:48:58.751Z,75.70
2017-03-22T05:49:58.677Z,75.70
2017-03-22T05:50:58.642Z,74.90
2017-03-22T05:52:58.710Z,74.40
2017-03-22T05:53:58.663Z,75.00
2017-03-22T05:54:59.059Z,73.70
2017-03-22T05:55:59.013Z,73.60
2017-03-22T05:56:59.774Z,73.80
2017-03-22T05:57:59.712Z,74.00
2017-03-22T05:58:59.654Z,74.00
2017-03-22T05:59:59.602Z,74.40
2017-03-22T06:00:59.550Z,74.30
2017-03-22T06:02:00.330Z,74.60
2017-03-22T06:03:00.285Z,74.10
2017-03-22T06:04:00.304Z,74.00
2017-03-22T06:05:01.401Z,74.00
2017-03-22T06:06:01.444Z,73.50
2017-03-22T06:07:02.134Z,73.70
2017-03-22T06:08:02.182Z,73.50
2017-03-22T06:09:02.998Z,73.50
2017-03-22T06:10:02.951Z,73.40
2017-03-22T06:11:03.013Z,73.50
2017-03-22T06:12:02.943Z,73.50
2017-03-22T06:13:02.935Z,73.50
2017-03-22T06:14:02.903Z,73.70
2017-03-22T06:15:03.447Z,73.30
2017-03-22T06:16:03.454Z,72.80
2017-03-22T06:17:04.011Z,72.60
2017-03-22T06:18:03.962Z,72.20
2017-03-22T06:19:03.899Z,72.30
2017-03-22T06:20:03.870Z,72.00
2017-03-22T06:21:03.844Z,72.30
2017-03-22T06:22:03.905Z,71.90
2017-03-22T06:23:03.843Z,71.30
2017-03-22T06:24:03.907Z,71.40
2017-03-22T06:25:09.845Z,71.30
2017-03-22T06:26:14.911Z,70.70
2017-03-22T06:27:15.804Z,70.20
2017-03-22T06:28:15.925Z,69.60
2017-03-22T06:29:15.913Z,68.80
2017-03-22T06:30:15.865Z,68.50
2017-03-22T06:31:15.859Z,68.50
2017-03-22T06:32:15.903Z,68.00
2017-03-22T06:33:15.944Z,67.30
2017-03-22T06:34:15.948Z,67.10
2017-03-22T06:35:15.975Z,67.50
2017-03-22T06:36:15.997Z,68.10
2017-03-22T06:37:16.090Z,66.60
2017-03-22T06:38:16.061Z,66.80
2017-03-22T06:39:16.039Z,66.50
2017-03-22T06:40:16.086Z,65.80
2017-03-22T06:41:16.073Z,66.00
2017-03-22T06:42:17.173Z,65.40
2017-03-22T06:43:17.214Z,66.10
2017-03-22T06:44:17.201Z,65.80
2017-03-22T06:45:17.130Z,65.70
2017-03-22T06:46:17.119Z,65.40
2017-03-22T06:47:17.090Z,64.90
2017-03-22T06:48:17.063Z,64.80
2017-03-22T06:49:17.199Z,63.80
2017-03-22T06:50:17.299Z,63.50
2017-03-22T06:51:17.549Z,63.00
2017-03-22T06:52:20.250Z,62.70
2017-03-22T06:53:20.283Z,62.60
2017-03-22T06:54:20.385Z,61.50
2017-03-22T06:55:20.470Z,61.00
2017-03-22T06:56:20.958Z,60.20
2017-03-22T06:57:21.141Z,60.00
2017-03-22T06:58:21.107Z,60.10
2017-03-22T06:59:21.119Z,59.50
2017-03-22T07:00:21.164Z,59.20
2017-03-22T07:01:21.961Z,58.90
2017-03-22T07:02:22.009Z,58.70
2017-03-22T07:03:22.099Z,58.50
2017-03-22T07:04:22.121Z,58.30
2017-03-22T07:05:22.086Z,58.20
2017-03-22T07:06:22.054Z,57.90
2017-03-22T07:07:22.041Z,57.70
2017-03-22T07:08:22.008Z,57.70
2017-03-22T07:09:22.010Z,57.60
2017-03-22T07:10:21.934Z,57.50
2017-03-22T07:11:21.949Z,57.20
2017-03-22T07:12:21.951Z,57.40
2017-03-22T07:13:21.931Z,57.00
2017-03-22T07:14:21.899Z,55.90
2017-03-22T07:15:21.926Z,55.80
2017-03-22T07:16:21.901Z,55.20
2017-03-22T07:17:21.968Z,54.80
2017-03-22T07:18:22.300Z,54.90
2017-03-22T07:19:22.311Z,54.30
2017-03-22T07:20:22.287Z,54.40
2017-03-22T07:21:22.239Z,53.90
2017-03-22T07:22:22.171Z,53.30
2017-03-22T07:23:22.314Z,52.70
2017-03-22T07:24:23.159Z,52.00
2017-03-22T07:25:38.097Z,51.70
2017-03-22T07:26:39.371Z,50.40
2017-03-22T07:27:39.480Z,49.70
2017-03-22T07:28:39.478Z,49.30
2017-03-22T07:29:39.683Z,48.60
2017-03-22T07:30:39.620Z,47.90
2017-03-22T07:31:39.697Z,47.10
2017-03-22T07:32:39.635Z,46.20
2017-03-22T07:33:39.602Z,43.10
2017-03-22T07:34:39.635Z,42.70
2017-03-22T07:35:39.725Z,41.90
2017-03-22T07:36:39.726Z,41.00
2017-03-22T07:37:40.452Z,40.20
2017-03-22T07:38:41.162Z,39.60
2017-03-22T07:39:41.162Z,39.90
2017-03-22T07:40:41.174Z,39.50
2017-03-22T07:41:41.155Z,38.60
2017-03-22T07:42:41.110Z,39.40
2017-03-22T07:43:41.523Z,39.80
2017-03-22T07:44:41.513Z,40.50
2017-03-22T07:45:41.533Z,40.20
2017-03-22T07:46:41.549Z,40.60
2017-03-22T07:47:41.484Z,41.50
2017-03-22T07:48:41.580Z,41.80
2017-03-22T07:49:41.593Z,41.90
2017-03-22T07:50:42.498Z,41.60
2017-03-22T07:51:42.480Z,41.10
2017-03-22T07:52:43.188Z,41.10
2017-03-22T07:53:43.150Z,40.90
2017-03-22T07:54:43.217Z,41.40
2017-03-22T07:55:43.189Z,40.40
2017-03-22T07:56:43.151Z,40.10
2017-03-22T07:57:43.111Z,39.70
2017-03-22T07:58:43.113Z,38.00
2017-03-22T07:59:43.565Z,37.60
2017-03-22T08:00:43.514Z,38.00
2017-03-22T08:01:43.461Z,36.70
2017-03-22T08:02:48.969Z,36.50
2017-03-22T08:03:49.303Z,36.30
2017-03-22T08:04:49.341Z,36.20
2017-03-22T08:05:49.324Z,35.80
2017-03-22T08:06:49.353Z,36.10
2017-03-22T08:07:49.339Z,35.90
2017-03-22T08:08:50.109Z,35.40
2017-03-22T08:09:50.123Z,35.50
2017-03-22T08:10:50.095Z,35.10
2017-03-22T08:11:50.080Z,35.00
2017-03-22T08:12:50.067Z,34.50
2017-03-22T08:13:50.727Z,34.70
2017-03-22T08:14:50.726Z,33.90
2017-03-22T08:15:53.612Z,33.50
2017-03-22T08:16:54.454Z,32.60
2017-03-22T08:17:54.452Z,32.70
2017-03-22T08:18:54.418Z,32.40
2017-03-22T08:19:54.372Z,30.90
2017-03-22T08:20:54.356Z,30.10
2017-03-22T08:21:54.294Z,29.80
2017-03-22T08:22:54.301Z,29.80
2017-03-22T08:23:54.243Z,29.70
2017-03-22T08:24:56.538Z,29.80
2017-03-22T08:25:56.649Z,29.50
2017-03-22T08:26:57.339Z,29.10
2017-03-22T08:27:57.484Z,28.60
2017-03-22T08:28:57.861Z,28.80
2017-03-22T08:29:57.825Z,28.80
2017-03-22T08:30:57.866Z,29.10
2017-03-22T08:31:57.910Z,29.50
2017-03-22T08:32:58.024Z,30.00
2017-03-22T08:33:57.994Z,29.90
2017-03-22T08:34:57.961Z,29.80
2017-03-22T08:35:57.937Z,30.50
2017-03-22T08:36:57.916Z,31.10
2017-03-22T08:37:57.962Z,30.50
2017-03-22T08:38:57.902Z,29.80
2017-03-22T08:39:57.914Z,29.80
2017-03-22T08:40:57.866Z,29.90
2017-03-22T08:41:57.837Z,29.50
2017-03-22T08:42:57.952Z,29.70
2017-03-22T08:43:57.902Z,30.00
2017-03-22T08:44:57.861Z,30.00
2017-03-22T08:45:57.841Z,30.00
2017-03-22T08:46:57.877Z,29.90
2017-03-22T08:47:58.065Z,29.50
2017-03-22T08:48:58.011Z,29.00
2017-03-22T08:49:57.986Z,28.80
2017-03-22T08:50:57.930Z,28.90
2017-03-22T08:51:57.910Z,29.60
2017-03-22T08:52:57.859Z,29.40
2017-03-22T08:53:57.817Z,29.70
2017-03-22T08:54:57.826Z,29.40
2017-03-22T08:55:57.793Z,29.10
2017-03-22T08:56:57.880Z,28.50
2017-03-22T08:57:57.874Z,28.20
2017-03-22T08:58:57.809Z,27.50
2017-03-22T08:59:57.799Z,27.20
2017-03-22T09:00:57.843Z,27.70
2017-03-22T09:01:57.903Z,27.80
2017-03-22T09:02:58.590Z,27.70
2017-03-22T09:03:59.003Z,27.50
2017-03-22T09:04:58.931Z,26.50
2017-03-22T09:05:59.662Z,26.10
2017-03-22T09:07:00.380Z,25.80
2017-03-22T09:08:00.338Z,25.40
2017-03-22T09:09:00.274Z,25.00
2017-03-22T09:10:00.312Z,25.40
2017-03-22T09:11:00.302Z,25.40
2017-03-22T09:12:00.294Z,25.40
2017-03-22T09:13:00.289Z,25.80
2017-03-22T09:14:00.228Z,25.60
2017-03-22T09:15:00.196Z,25.70
2017-03-22T09:16:00.229Z,25.60
2017-03-22T09:17:00.201Z,26.00
2017-03-22T09:18:00.175Z,26.00
2017-03-22T09:19:00.321Z,25.70
2017-03-22T09:20:00.382Z,25.70
2017-03-22T09:21:09.254Z,26.30
2017-03-22T09:22:09.974Z,26.20
2017-03-22T09:23:10.079Z,26.40
2017-03-22T09:24:10.050Z,27.00
2017-03-22T09:25:10.157Z,27.10
2017-03-22T09:26:10.858Z,27.50
2017-03-22T09:27:10.870Z,27.80
2017-03-22T09:28:11.530Z,28.40
2017-03-22T09:29:11.466Z,28.00
2017-03-22T09:30:11.985Z,27.50
2017-03-22T09:31:11.978Z,26.50
2017-03-22T09:32:11.918Z,26.50
2017-03-22T09:33:11.852Z,26.50
2017-03-22T09:34:11.902Z,26.30
2017-03-22T09:35:11.842Z,26.80
2017-03-22T09:36:12.533Z,27.00
2017-03-22T09:37:12.474Z,27.00
2017-03-22T09:38:12.435Z,26.90
2017-03-22T09:39:12.448Z,26.50
2017-03-22T09:40:12.396Z,26.30
2017-03-22T09:41:15.388Z,26.40
2017-03-22T09:42:15.325Z,25.60
2017-03-22T09:43:15.338Z,25.80
2017-03-22T09:44:15.341Z,26.50
2017-03-22T09:45:15.353Z,26.80
2017-03-22T09:46:16.808Z,27.00
2017-03-22T09:47:16.737Z,26.80
2017-03-22T09:48:16.749Z,26.30
2017-03-22T09:49:16.704Z,26.70
2017-03-22T09:50:16.662Z,27.20
2017-03-22T09:51:16.640Z,27.60
2017-03-22T09:52:16.673Z,26.90
2017-03-22T09:53:17.361Z,26.50
2017-03-22T09:54:17.346Z,25.70
2017-03-22T09:55:17.342Z,25.40
2017-03-22T09:56:17.309Z,24.70
2017-03-22T09:57:17.290Z,24.90
2017-03-22T09:58:17.295Z,25.00
2017-03-22T09:59:17.245Z,25.20
2017-03-22T10:00:17.273Z,25.40
2017-03-22T10:01:17.271Z,25.20
2017-03-22T10:02:17.246Z,24.90
2017-03-22T10:03:17.243Z,25.20
2017-03-22T10:04:17.174Z,24.70
2017-03-22T10:05:17.319Z,24.90
2017-03-22T10:06:17.296Z,25.00
2017-03-22T10:07:17.304Z,24.70
2017-03-22T10:08:17.247Z,24.60
2017-03-22T10:09:17.225Z,24.60
2017-03-22T10:10:17.171Z,24.20
2017-03-22T10:11:17.202Z,24.30
2017-03-22T10:12:17.251Z,24.30
2017-03-22T10:13:17.319Z,23.90
2017-03-22T10:14:17.394Z,23.60
2017-03-22T10:15:17.392Z,23.30
2017-03-22T10:16:17.425Z,24.10
2017-03-22T10:17:18.134Z,23.90
2017-03-22T10:18:18.095Z,24.00
2017-03-22T10:19:18.030Z,24.40
2017-03-22T10:20:18.025Z,25.00
2017-03-22T10:21:20.550Z,26.00
2017-03-22T10:22:20.580Z,26.40
2017-03-22T10:23:20.542Z,26.40
2017-03-22T10:24:20.521Z,26.30
2017-03-22T10:25:20.528Z,26.40
2017-03-22T10:26:20.454Z,25.90
2017-03-22T10:27:20.426Z,25.10
2017-03-22T10:28:20.397Z,24.60
2017-03-22T10:29:20.441Z,24.30
2017-03-22T10:30:20.477Z,24.20
2017-03-22T10:31:20.443Z,24.30
2017-03-22T10:32:20.445Z,24.90
2017-03-22T10:33:20.367Z,25.20
2017-03-22T10:34:20.343Z,24.60
2017-03-22T10:35:20.313Z,24.80
2017-03-22T10:36:20.280Z,25.20
2017-03-22T10:37:20.269Z,24.60
2017-03-22T10:38:20.298Z,24.60
2017-03-22T10:39:20.362Z,24.60
2017-03-22T10:40:20.333Z,24.20
2017-03-22T10:41:20.376Z,24.10
2017-03-22T10:42:20.381Z,23.40
2017-03-22T10:43:20.366Z,24.50
2017-03-22T10:44:20.285Z,24.80
2017-03-22T10:45:20.265Z,24.50
2017-03-22T10:46:20.953Z,24.00
2017-03-22T10:47:20.945Z,23.40
2017-03-22T10:48:20.886Z,22.60
2017-03-22T10:49:20.823Z,21.30
2017-03-22T10:50:20.755Z,21.00
2017-03-22T10:51:21.310Z,21.50
2017-03-22T10:52:21.274Z,21.90
2017-03-22T10:53:21.255Z,22.30
2017-03-22T10:54:21.216Z,21.80
2017-03-22T10:55:21.810Z,21.70
2017-03-22T10:56:28.499Z,21.90
2017-03-22T10:57:28.478Z,22.10
2017-03-22T10:58:28.425Z,21.70
2017-03-22T10:59:28.374Z,21.50
2017-03-22T11:00:28.399Z,21.80
2017-03-22T11:01:28.451Z,22.20
2017-03-22T11:02:28.558Z,22.50
2017-03-22T11:03:28.557Z,22.40
2017-03-22T11:04:28.639Z,21.90
2017-03-22T11:05:28.569Z,21.80
2017-03-22T11:06:28.478Z,21.50
2017-03-22T11:07:28.433Z,21.10
2017-03-22T11:08:28.405Z,20.90
2017-03-22T11:09:28.333Z,21.00
2017-03-22T11:10:28.282Z,21.30
2017-03-22T11:11:28.347Z,21.60
2017-03-22T11:12:28.466Z,21.20
2017-03-22T11:13:29.291Z,21.20
2017-03-22T11:14:29.263Z,21.00
2017-03-22T11:15:30.087Z,21.20
2017-03-22T11:16:30.015Z,21.20
2017-03-22T11:17:30.017Z,21.60
2017-03-22T11:18:29.970Z,21.00
2017-03-22T11:19:29.914Z,19.90
2017-03-22T11:20:29.852Z,20.80
2017-03-22T11:21:29.877Z,21.50
2017-03-22T11:22:29.838Z,22.40
2017-03-22T11:23:29.976Z,23.10
2017-03-22T11:24:29.918Z,23.20
2017-03-22T11:25:29.905Z,23.70
2017-03-22T11:26:29.897Z,24.60
2017-03-22T11:27:29.919Z,25.50
2017-03-22T11:28:29.920Z,25.90
2017-03-22T11:29:29.912Z,26.20
2017-03-22T11:30:30.636Z,26.40
2017-03-22T11:31:30.636Z,26.90
2017-03-22T11:32:31.485Z,27.10
2017-03-22T11:33:31.477Z,27.40
2017-03-22T11:34:31.422Z,28.30
2017-03-22T11:35:31.370Z,29.10
2017-03-22T11:36:31.357Z,29.50
2017-03-22T11:37:31.268Z,29.60
2017-03-22T11:38:31.218Z,29.90
2017-03-22T11:39:31.209Z,30.00
2017-03-22T11:40:31.166Z,30.60
2017-03-22T11:41:31.204Z,30.00
2017-03-22T11:42:31.165Z,30.30
2017-03-22T11:43:31.136Z,30.90
2017-03-22T11:44:31.102Z,30.90
2017-03-22T11:45:31.128Z,29.40
2017-03-22T11:46:31.158Z,28.50
2017-03-22T11:47:31.620Z,28.70
2017-03-22T11:48:31.558Z,29.00
2017-03-22T11:49:32.253Z,29.00
2017-03-22T11:50:32.273Z,28.20
2017-03-22T11:51:32.941Z,28.30
2017-03-22T11:52:32.858Z,28.40
2017-03-22T11:53:32.841Z,27.40
2017-03-22T11:54:32.799Z,27.10
2017-03-22T11:55:32.733Z,27.90
2017-03-22T11:56:33.508Z,28.30
2017-03-22T11:57:33.583Z,28.40
2017-03-22T11:58:34.202Z,28.20
2017-03-22T11:59:34.153Z,29.20
2017-03-22T12:00:34.116Z,29.30
2017-03-22T12:01:34.036Z,29.50
2017-03-22T12:02:33.989Z,29.50
2017-03-22T12:03:33.997Z,29.60
2017-03-22T12:04:33.954Z,30.00
2017-03-22T12:05:33.885Z,30.40
2017-03-22T12:06:33.820Z,30.70
2017-03-22T12:07:34.512Z,31.50
2017-03-22T12:08:34.513Z,31.80
2017-03-22T12:09:34.546Z,31.40
2017-03-22T12:10:34.534Z,31.10
2017-03-22T12:11:34.510Z,30.50
2017-03-22T12:12:34.550Z,29.60
2017-03-22T12:13:34.547Z,29.10
2017-03-22T12:14:34.478Z,29.00
2017-03-22T12:15:34.461Z,28.60
2017-03-22T12:16:34.423Z,27.40
2017-03-22T12:17:34.405Z,26.90
2017-03-22T12:18:34.366Z,27.40
2017-03-22T12:19:34.336Z,27.70
2017-03-22T12:20:34.383Z,27.70
2017-03-22T12:21:34.342Z,27.80
2017-03-22T12:22:34.313Z,27.30
2017-03-22T12:23:34.250Z,26.80
2017-03-22T12:24:34.183Z,26.20
2017-03-22T12:25:34.658Z,25.40
2017-03-22T12:28:18.486Z,24.50
2017-03-22T12:29:18.488Z,22.60
2017-03-22T12:30:18.443Z,22.10
2017-03-22T12:31:19.164Z,21.70
2017-03-22T12:32:19.141Z,22.30
2017-03-22T12:33:19.093Z,22.90
2017-03-22T12:34:19.693Z,22.30
2017-03-22T12:35:19.701Z,22.00
2017-03-22T12:36:19.737Z,22.50
2017-03-22T12:37:19.798Z,21.20
2017-03-22T12:38:19.721Z,21.90
2017-03-22T12:39:19.803Z,22.60
2017-03-22T12:40:19.753Z,23.30
2017-03-22T12:41:19.750Z,23.60
2017-03-22T12:42:19.712Z,23.40
2017-03-22T12:43:19.650Z,23.60
2017-03-22T12:44:20.345Z,24.40
2017-03-22T12:45:20.304Z,25.20
2017-03-22T12:46:20.285Z,25.60
2017-03-22T12:47:20.330Z,25.80
2017-03-22T12:48:20.277Z,26.60
2017-03-22T12:49:20.375Z,27.00
2017-03-22T12:50:30.111Z,27.40
2017-03-22T12:51:30.310Z,27.80
2017-03-22T12:52:37.225Z,28.00
2017-03-22T12:53:38.105Z,28.20
2017-03-22T12:54:38.161Z,28.20
2017-03-22T12:55:38.112Z,28.40
2017-03-22T12:56:38.114Z,28.90
2017-03-22T12:57:38.134Z,29.80
2017-03-22T12:58:38.093Z,30.70